createdAt,value
2022-08-03T00:02:20.026Z,101358.50
2022-08-03T00:04:48.849Z,101363.75
2022-08-03T00:07:17.340Z,101364.28
2022-08-03T00:09:45.757Z,101367.56
2022-08-03T00:12:14.581Z,101368.69
2022-08-03T00:14:43.428Z,101367.88
2022-08-03T00:17:12.596Z,101358.09
2022-08-03T00:19:41.057Z,101366.84
2022-08-03T00:22:09.460Z,101371.22
2022-08-03T00:24:37.969Z,101378.13
2022-08-03T00:27:06.348Z,101366.53
2022-08-03T00:29:59.478Z,101382.78
2022-08-03T00:32:24.143Z,101373.41
2022-08-03T00:34:57.213Z,101368.06
2022-08-03T00:37:41.228Z,101361.22
2022-08-03T00:40:14.962Z,101365.66
2022-08-03T00:42:48.682Z,101370.94
2022-08-03T00:45:21.974Z,101359.31
2022-08-03T00:47:50.984Z,101356.31
2022-08-03T00:50:22.823Z,101356.78
2022-08-03T00:52:56.225Z,101356.72
2022-08-03T00:55:25.776Z,101357.25
2022-08-03T00:57:55.259Z,101355.91
2022-08-03T01:00:26.016Z,101349.44
2022-08-03T01:02:54.811Z,101345.34
2022-08-03T01:05:25.198Z,101348.13
2022-08-03T01:08:22.760Z,101344.44
2022-08-03T01:11:19.149Z,101353.25
2022-08-03T01:14:18.319Z,101344.72
2022-08-03T01:16:59.288Z,101341.69
2022-08-03T01:19:51.834Z,101345.78
2022-08-03T01:22:59.153Z,101339.94
2022-08-03T01:26:12.650Z,101341.91
2022-08-03T01:28:50.221Z,101331.00
2022-08-03T01:31:23.812Z,101334.50
2022-08-03T01:33:59.200Z,101326.19
2022-08-03T01:36:33.807Z,101329.53
2022-08-03T01:39:09.247Z,101338.84
2022-08-03T01:41:44.580Z,101336.59
2022-08-03T01:44:29.177Z,101333.13
2022-08-03T01:47:01.185Z,101330.19
2022-08-03T01:49:33.563Z,101329.25
2022-08-03T01:52:05.565Z,101332.56
2022-08-03T01:54:44.111Z,101333.31
2022-08-03T01:57:14.092Z,101329.22
2022-08-03T01:59:44.669Z,101325.38
2022-08-03T02:02:32.200Z,101320.78
2022-08-03T02:05:05.930Z,101330.09
2022-08-03T02:07:42.120Z,101324.28
2022-08-03T02:10:13.435Z,101324.03
2022-08-03T02:12:46.100Z,101324.59
2022-08-03T02:15:16.728Z,101320.63
2022-08-03T02:17:48.520Z,101321.13
2022-08-03T02:20:17.604Z,101324.09
2022-08-03T02:22:54.575Z,101312.97
2022-08-03T02:25:57.277Z,101323.44
2022-08-03T02:28:35.204Z,101329.63
2022-08-03T02:31:07.479Z,101328.81
2022-08-03T02:33:43.206Z,101317.81
2022-08-03T02:36:14.486Z,101328.13
2022-08-03T02:38:46.450Z,101322.06
2022-08-03T02:41:23.915Z,101323.16
2022-08-03T02:44:05.584Z,101323.59
2022-08-03T02:46:41.438Z,101318.13
2022-08-03T02:49:40.551Z,101309.91
2022-08-03T02:52:02.828Z,101319.19
2022-08-03T02:54:33.023Z,101309.75
2022-08-03T02:57:02.403Z,101311.47
2022-08-03T02:59:32.190Z,101317.63
2022-08-03T03:02:02.724Z,101313.81
2022-08-03T03:04:32.204Z,101311.59
2022-08-03T03:07:04.451Z,101314.13
2022-08-03T03:09:40.471Z,101308.63
2022-08-03T03:12:12.616Z,101314.31
2022-08-03T03:14:41.160Z,101308.81
2022-08-03T03:17:11.432Z,101307.94
2022-08-03T03:19:41.385Z,101308.56
2022-08-03T03:22:10.703Z,101305.81
2022-08-03T03:24:41.465Z,101304.41
2022-08-03T03:27:10.221Z,101308.06
2022-08-03T03:29:45.599Z,101313.56
2022-08-03T03:32:14.474Z,101314.56
2022-08-03T03:34:44.226Z,101310.31
2022-08-03T03:37:12.988Z,101309.84
2022-08-03T03:39:41.498Z,101317.63
2022-08-03T03:42:10.143Z,101314.13
2022-08-03T03:44:38.711Z,101315.09
2022-08-03T03:47:07.308Z,101307.16
2022-08-03T03:49:36.422Z,101305.25
2022-08-03T03:52:05.287Z,101313.75
2022-08-03T03:54:43.499Z,101307.78
2022-08-03T03:57:20.101Z,101308.63
2022-08-03T03:59:49.063Z,101308.50
2022-08-03T04:02:18.042Z,101314.50
2022-08-03T04:05:25.141Z,101304.66
2022-08-03T04:08:18.299Z,101311.16
2022-08-03T04:11:00.445Z,101302.50
2022-08-03T04:14:01.768Z,101306.25
2022-08-03T04:16:34.449Z,101305.69
2022-08-03T04:19:08.143Z,101304.19
2022-08-03T04:21:43.446Z,101305.25
2022-08-03T04:24:14.864Z,101299.25
2022-08-03T04:26:49.626Z,101306.50
2022-08-03T04:29:22.354Z,101309.03
2022-08-03T04:31:54.640Z,101308.16
2022-08-03T04:34:23.348Z,101317.38
2022-08-03T04:36:57.947Z,101321.47
2022-08-03T04:39:29.381Z,101313.38
2022-08-03T04:42:17.059Z,101321.66
2022-08-03T04:44:46.815Z,101312.28
2022-08-03T04:47:16.343Z,101320.66
2022-08-03T04:49:45.581Z,101309.44
2022-08-03T04:52:15.151Z,101317.47
2022-08-03T04:54:48.809Z,101322.13
2022-08-03T04:57:22.527Z,101329.81
2022-08-03T05:00:01.265Z,101329.88
2022-08-03T05:02:32.038Z,101328.06
2022-08-03T05:05:00.678Z,101346.25
2022-08-03T05:07:35.508Z,101329.44
2022-08-03T05:10:15.712Z,101341.81
2022-08-03T05:12:48.119Z,101343.50
2022-08-03T05:15:16.641Z,101352.41
2022-08-03T05:17:45.145Z,101350.09
2022-08-03T05:20:13.612Z,101356.06
2022-08-03T05:22:47.333Z,101359.31
2022-08-03T05:25:19.211Z,101360.63
2022-08-03T05:27:49.427Z,101360.44
2022-08-03T05:30:29.866Z,101362.97
2022-08-03T05:33:03.451Z,101355.56
2022-08-03T05:36:00.766Z,101357.69
2022-08-03T05:38:28.798Z,101365.53
2022-08-03T05:41:22.814Z,101354.13
2022-08-03T05:43:55.971Z,101354.88
2022-08-03T05:46:24.906Z,101354.00
2022-08-03T05:48:53.544Z,101358.44
2022-08-03T05:51:22.196Z,101360.09
2022-08-03T05:53:50.737Z,101357.84
2022-08-03T05:56:24.159Z,101360.50
2022-08-03T05:58:53.293Z,101359.06
2022-08-03T06:01:22.354Z,101353.22
2022-08-03T06:03:52.132Z,101349.41
2022-08-03T06:06:20.604Z,101349.44
2022-08-03T06:08:49.241Z,101356.09
2022-08-03T06:11:17.764Z,101356.03
2022-08-03T06:13:46.312Z,101358.66
2022-08-03T06:16:14.716Z,101349.00
2022-08-03T06:18:44.215Z,101353.16
2022-08-03T06:21:15.700Z,101358.94
2022-08-03T06:23:54.726Z,101350.94
2022-08-03T06:26:25.505Z,101357.56
2022-08-03T06:28:54.950Z,101355.69
2022-08-03T06:31:33.395Z,101356.69
2022-08-03T06:34:33.190Z,101356.03
2022-08-03T06:36:53.151Z,101362.16
2022-08-03T06:39:23.676Z,101355.28
2022-08-03T06:41:53.051Z,101364.25
2022-08-03T06:44:21.685Z,101358.53
2022-08-03T06:46:51.127Z,101360.47
2022-08-03T06:49:19.664Z,101367.69
2022-08-03T06:52:03.529Z,101370.16
2022-08-03T06:54:36.253Z,101366.44
2022-08-03T06:57:05.920Z,101368.69
2022-08-03T07:00:09.555Z,101371.31
2022-08-03T07:02:24.056Z,101360.47
2022-08-03T07:04:56.667Z,101372.44
2022-08-03T07:07:25.138Z,101370.56
2022-08-03T07:09:57.182Z,101368.22
2022-08-03T07:12:28.604Z,101375.22
2022-08-03T07:15:01.365Z,101377.16
2022-08-03T07:17:34.670Z,101381.91
2022-08-03T07:20:08.263Z,101382.19
2022-08-03T07:22:37.746Z,101383.31
2022-08-03T07:25:07.584Z,101394.16
2022-08-03T07:27:37.039Z,101386.03
2022-08-03T07:30:08.028Z,101386.25
2022-08-03T07:32:36.670Z,101388.06
2022-08-03T07:35:24.759Z,101382.41
2022-08-03T07:37:55.062Z,101397.41
2022-08-03T07:40:23.974Z,101391.44
2022-08-03T07:42:59.943Z,101391.78
2022-08-03T07:45:30.148Z,101390.81
2022-08-03T07:47:58.659Z,101388.78
2022-08-03T07:50:27.199Z,101391.63
2022-08-03T07:52:57.888Z,101392.72
2022-08-03T07:55:28.615Z,101388.84
2022-08-03T07:58:02.270Z,101384.44
2022-08-03T08:00:31.427Z,101386.91
2022-08-03T08:03:00.017Z,101389.09
2022-08-03T08:05:29.421Z,101388.28
2022-08-03T08:07:58.025Z,101386.63
2022-08-03T08:10:28.790Z,101395.38
2022-08-03T08:12:57.682Z,101394.56
2022-08-03T08:15:26.203Z,101389.63
2022-08-03T08:17:57.129Z,101386.06
2022-08-03T08:20:30.732Z,101394.34
2022-08-03T08:23:19.954Z,101396.53
2022-08-03T08:25:58.111Z,101395.16
2022-08-03T08:28:32.855Z,101399.03
2022-08-03T08:31:02.281Z,101386.88
2022-08-03T08:34:05.073Z,101390.44
2022-08-03T08:36:19.606Z,101377.78
2022-08-03T08:38:48.338Z,101382.41
2022-08-03T08:41:17.286Z,101376.13
2022-08-03T08:43:45.906Z,101382.72
2022-08-03T08:46:22.744Z,101389.81
2022-08-03T08:48:54.706Z,101377.78
2022-08-03T08:51:59.081Z,101385.38
2022-08-03T08:54:20.696Z,101387.03
2022-08-03T08:56:55.937Z,101391.25
2022-08-03T08:59:25.364Z,101390.91
2022-08-03T09:01:57.980Z,101382.66
2022-08-03T09:04:29.075Z,101390.31
2022-08-03T09:07:18.779Z,101381.59
2022-08-03T09:10:00.343Z,101383.69
2022-08-03T09:12:43.009Z,101379.56
2022-08-03T09:15:19.280Z,101385.75
2022-08-03T09:17:51.258Z,101384.13
2022-08-03T09:20:21.758Z,101380.72
2022-08-03T09:23:24.934Z,101382.50
2022-08-03T09:26:00.037Z,101394.94
2022-08-03T09:29:01.143Z,101393.53
2022-08-03T09:31:38.622Z,101378.84
2022-08-03T09:34:09.112Z,101385.41
2022-08-03T09:36:48.488Z,101385.16
2022-08-03T09:39:28.674Z,101395.16
2022-08-03T09:42:23.797Z,101396.69
2022-08-03T09:44:53.158Z,101383.28
2022-08-03T09:47:29.868Z,101390.03
2022-08-03T09:50:04.606Z,101385.34
2022-08-03T09:52:52.154Z,101391.44
2022-08-03T09:56:33.080Z,101387.66
2022-08-03T09:58:12.684Z,101388.38
2022-08-03T10:01:04.584Z,101386.41
2022-08-03T10:04:03.219Z,101376.25
2022-08-03T10:06:28.792Z,101393.34
2022-08-03T10:09:10.208Z,101389.13
2022-08-03T10:11:42.125Z,101385.47
2022-08-03T10:14:18.823Z,101391.28
2022-08-03T10:16:49.685Z,101394.84
2022-08-03T10:19:18.213Z,101390.75
2022-08-03T10:21:51.217Z,101384.72
2022-08-03T10:24:24.498Z,101376.72
2022-08-03T10:27:00.730Z,101375.97
2022-08-03T10:29:32.892Z,101382.22
2022-08-03T10:32:05.394Z,101379.84
2022-08-03T10:34:44.551Z,101376.38
2022-08-03T10:37:17.530Z,101370.06
2022-08-03T10:39:55.689Z,101374.66
2022-08-03T10:42:27.132Z,101368.22
2022-08-03T10:45:02.735Z,101361.06
2022-08-03T10:47:32.673Z,101355.78
2022-08-03T10:50:02.040Z,101362.47
2022-08-03T10:52:33.604Z,101367.66
2022-08-03T10:55:47.845Z,101358.53
2022-08-03T10:58:37.224Z,101351.25
2022-08-03T11:01:10.581Z,101352.31
2022-08-03T11:03:54.332Z,101348.44
2022-08-03T11:06:25.535Z,101347.72
2022-08-03T11:09:23.226Z,101338.88
2022-08-03T11:11:51.874Z,101340.84
2022-08-03T11:14:21.636Z,101343.38
2022-08-03T11:17:06.043Z,101339.66
2022-08-03T11:19:57.596Z,101339.19
2022-08-03T11:22:54.455Z,101336.88
2022-08-03T11:25:53.505Z,101326.53
2022-08-03T11:28:26.269Z,101337.59
2022-08-03T11:30:56.410Z,101329.75
2022-08-03T11:33:31.656Z,101330.91
2022-08-03T11:36:02.252Z,101328.47
2022-08-03T11:38:30.836Z,101331.47
2022-08-03T11:41:02.544Z,101337.31
2022-08-03T11:43:35.135Z,101332.72
2022-08-03T11:46:08.669Z,101334.75
2022-08-03T11:48:45.272Z,101330.25
2022-08-03T11:51:30.064Z,101329.75
2022-08-03T11:53:59.908Z,101324.44
2022-08-03T11:56:29.808Z,101325.06
2022-08-03T11:59:19.989Z,101334.88
2022-08-03T12:01:47.418Z,101333.91
2022-08-03T12:04:16.265Z,101320.81
2022-08-03T12:07:01.245Z,101320.81
2022-08-03T12:09:29.904Z,101329.69
2022-08-03T12:12:00.966Z,101338.56
2022-08-03T12:14:48.375Z,101340.63
2022-08-03T12:17:19.376Z,101326.81
2022-08-03T12:19:48.211Z,101335.06
2022-08-03T12:22:17.159Z,101334.84
2022-08-03T12:24:47.580Z,101323.84
2022-08-03T12:27:24.276Z,101331.41
2022-08-03T12:29:57.242Z,101324.84
2022-08-03T12:32:31.298Z,101327.34
2022-08-03T12:35:01.660Z,101326.69
2022-08-03T12:37:31.267Z,101320.50
2022-08-03T12:40:08.013Z,101322.06
2022-08-03T12:42:39.932Z,101323.13
2022-08-03T12:45:19.511Z,101322.56
2022-08-03T12:47:56.837Z,101325.75
2022-08-03T12:50:28.203Z,101321.44
2022-08-03T12:52:58.372Z,101321.09
2022-08-03T12:55:57.244Z,101323.94
2022-08-03T12:58:34.917Z,101322.66
2022-08-03T13:01:09.746Z,101328.78
2022-08-03T13:03:42.115Z,101324.19
2022-08-03T13:06:16.805Z,101321.88
2022-08-03T13:08:48.144Z,101327.25
2022-08-03T13:11:55.644Z,101314.84
2022-08-03T13:14:13.541Z,101316.13
2022-08-03T13:16:49.297Z,101315.72
2022-08-03T13:19:18.013Z,101311.84
2022-08-03T13:21:53.675Z,101305.06
2022-08-03T13:24:33.664Z,101308.06
2022-08-03T13:27:22.543Z,101305.88
2022-08-03T13:29:52.882Z,101302.28
2022-08-03T13:32:21.896Z,101311.66
2022-08-03T13:34:52.396Z,101307.31
2022-08-03T13:37:21.576Z,101313.16
2022-08-03T13:39:59.692Z,101305.06
2022-08-03T13:42:32.472Z,101303.50
2022-08-03T13:45:02.128Z,101308.78
2022-08-03T13:47:30.777Z,101307.50
2022-08-03T13:50:01.468Z,101301.44
2022-08-03T13:52:33.203Z,101306.00
2022-08-03T13:55:03.623Z,101307.53
2022-08-03T13:58:04.085Z,101307.31
2022-08-03T14:00:28.232Z,101307.69
2022-08-03T14:03:05.053Z,101302.34
2022-08-03T14:05:35.990Z,101300.19
2022-08-03T14:08:06.672Z,101308.03
2022-08-03T14:10:37.743Z,101289.41
2022-08-03T14:13:06.835Z,101292.00
2022-08-03T14:15:37.571Z,101284.00
2022-08-03T14:18:15.808Z,101288.19
2022-08-03T14:20:49.031Z,101277.97
2022-08-03T14:23:20.064Z,101281.50
2022-08-03T14:25:51.532Z,101274.09
2022-08-03T14:28:23.820Z,101275.63
2022-08-03T14:30:53.780Z,101266.47
2022-08-03T14:33:23.494Z,101264.78
2022-08-03T14:35:52.194Z,101259.16
2022-08-03T14:38:21.304Z,101248.59
2022-08-03T14:40:50.434Z,101258.00
2022-08-03T14:43:21.093Z,101245.03
2022-08-03T14:45:53.854Z,101253.84
2022-08-03T14:50:10.551Z,101244.78
2022-08-03T14:51:13.449Z,101243.88
2022-08-03T14:53:42.148Z,101241.69
2022-08-03T14:56:11.036Z,101244.63
2022-08-03T14:58:39.785Z,101240.06
2022-08-03T15:02:05.354Z,101237.16
2022-08-03T15:03:57.099Z,101241.28
2022-08-03T15:06:25.583Z,101242.13
2022-08-03T15:11:43.007Z,101227.16
2022-08-03T15:14:13.468Z,101231.75
2022-08-03T15:16:43.292Z,101220.41
2022-08-03T15:20:01.029Z,101230.13
2022-08-03T15:22:00.953Z,101224.03
2022-08-03T15:24:29.855Z,101224.38
2022-08-03T15:26:58.332Z,101217.47
2022-08-03T15:30:07.237Z,101222.25
2022-08-03T15:32:15.524Z,101213.31
2022-08-03T15:34:50.352Z,101212.72
2022-08-03T15:37:20.742Z,101213.31
2022-08-03T15:40:00.151Z,101215.16
2022-08-03T15:42:30.998Z,101212.47
2022-08-03T15:44:59.832Z,101204.28
2022-08-03T15:47:28.529Z,101212.94
2022-08-03T15:49:57.319Z,101200.94
2022-08-03T15:52:26.043Z,101199.81
2022-08-03T15:54:54.629Z,101196.22
2022-08-03T15:57:23.869Z,101191.06
2022-08-03T15:59:52.660Z,101187.59
2022-08-03T16:02:21.687Z,101203.28
2022-08-03T16:04:50.272Z,101199.81
2022-08-03T16:07:38.696Z,101199.03
2022-08-03T16:10:07.779Z,101188.31
2022-08-03T16:12:37.725Z,101186.94
2022-08-03T16:15:07.162Z,101180.22
2022-08-03T16:17:35.800Z,101188.16
2022-08-03T16:20:10.841Z,101184.66
2022-08-03T16:22:55.059Z,101177.94
2022-08-03T16:25:24.741Z,101179.72
2022-08-03T16:28:07.214Z,101188.25
2022-08-03T16:30:36.079Z,101173.75
2022-08-03T16:33:04.791Z,101176.03
2022-08-03T16:35:33.456Z,101175.72
2022-08-03T16:38:06.503Z,101177.53
2022-08-03T16:40:38.142Z,101176.19
2022-08-03T16:43:18.394Z,101173.22
2022-08-03T16:45:47.931Z,101176.41
2022-08-03T16:48:17.666Z,101172.53
2022-08-03T16:50:47.118Z,101170.50
2022-08-03T16:53:17.235Z,101167.38
2022-08-03T16:56:05.574Z,101165.44
2022-08-03T16:58:42.394Z,101161.97
2022-08-03T17:01:21.500Z,101170.50
2022-08-03T17:04:01.698Z,101171.19
2022-08-03T17:06:44.750Z,101163.97
2022-08-03T17:09:20.764Z,101165.13
2022-08-03T17:11:50.992Z,101170.38
2022-08-03T17:14:22.891Z,101172.81
2022-08-03T17:17:01.026Z,101170.38
2022-08-03T17:19:32.584Z,101172.50
2022-08-03T17:22:11.010Z,101152.59
2022-08-03T17:24:45.008Z,101158.72
2022-08-03T17:28:48.490Z,101156.09
2022-08-03T17:30:12.135Z,101163.78
2022-08-03T17:32:57.154Z,101156.25
2022-08-03T17:35:34.560Z,101164.28
2022-08-03T17:38:10.488Z,101160.34
2022-08-03T17:40:50.155Z,101158.84
2022-08-03T17:44:13.227Z,101150.47
2022-08-03T17:46:10.954Z,101161.44
2022-08-03T17:48:41.405Z,101157.31
2022-08-03T17:51:20.290Z,101159.16
2022-08-03T17:54:18.143Z,101159.00
2022-08-03T17:57:22.377Z,101155.78
2022-08-03T18:00:32.354Z,101164.09
2022-08-03T18:03:15.365Z,101156.91
2022-08-03T18:06:11.406Z,101157.56
2022-08-03T18:08:43.552Z,101155.28
2022-08-03T18:11:16.719Z,101152.28
2022-08-03T18:13:53.510Z,101150.69
2022-08-03T18:16:36.237Z,101155.09
2022-08-03T18:19:09.293Z,101155.94
2022-08-03T18:22:02.844Z,101143.59
2022-08-03T18:24:28.649Z,101148.03
2022-08-03T18:27:00.091Z,101146.88
2022-08-03T18:29:31.178Z,101148.47
2022-08-03T18:32:03.062Z,101159.91
2022-08-03T18:34:34.471Z,101154.50
2022-08-03T18:37:07.280Z,101149.06
2022-08-03T18:39:39.001Z,101149.78
2022-08-03T18:42:20.054Z,101148.22
2022-08-03T18:44:56.396Z,101139.22
2022-08-03T18:47:56.887Z,101146.34
2022-08-03T18:50:37.034Z,101149.16
2022-08-03T18:53:19.767Z,101144.72
2022-08-03T18:56:03.573Z,101145.38
2022-08-03T18:58:52.368Z,101148.53
2022-08-03T19:02:00.769Z,101150.97
2022-08-03T19:04:35.944Z,101151.03
2022-08-03T19:07:08.496Z,101143.56
2022-08-03T19:09:54.543Z,101146.63
2022-08-03T19:12:39.876Z,101152.69
2022-08-03T19:18:02.557Z,101140.56
2022-08-03T19:20:34.885Z,101145.72
2022-08-03T19:23:06.754Z,101144.38
2022-08-03T19:25:39.313Z,101156.03
2022-08-03T19:28:09.138Z,101146.06
2022-08-03T19:30:40.081Z,101153.56
2022-08-03T19:33:14.231Z,101154.66
2022-08-03T19:38:33.660Z,101163.13
2022-08-03T19:41:03.766Z,101165.53
2022-08-03T19:43:52.959Z,101167.28
2022-08-03T19:46:27.648Z,101169.13
2022-08-03T19:49:15.196Z,101174.16
2022-08-03T19:52:01.561Z,101177.63
2022-08-03T19:54:53.150Z,101174.44
2022-08-03T19:57:25.534Z,101175.78
2022-08-03T19:59:56.592Z,101173.09
2022-08-03T20:02:26.873Z,101174.22
2022-08-03T20:04:57.945Z,101169.69
2022-08-03T20:07:31.894Z,101163.44
2022-08-03T20:10:04.541Z,101169.59
2022-08-03T20:12:39.131Z,101171.41
2022-08-03T20:15:09.106Z,101165.84
2022-08-03T20:17:56.821Z,101170.16
2022-08-03T20:20:33.112Z,101166.94
2022-08-03T20:23:06.909Z,101171.88
2022-08-03T20:25:57.123Z,101169.50
2022-08-03T20:28:50.612Z,101167.44
2022-08-03T20:31:25.248Z,101170.25
2022-08-03T20:34:06.836Z,101167.88
2022-08-03T20:36:38.224Z,101162.03
2022-08-03T20:39:07.804Z,101156.38
2022-08-03T20:41:37.440Z,101172.13
2022-08-03T20:44:06.345Z,101159.38
2022-08-03T20:46:50.225Z,101165.34
2022-08-03T20:49:23.636Z,101168.28
2022-08-03T20:51:53.646Z,101159.84
2022-08-03T20:54:29.902Z,101167.69
2022-08-03T20:57:04.113Z,101166.81
2022-08-03T20:59:50.534Z,101164.03
2022-08-03T21:02:30.250Z,101164.19
2022-08-03T21:05:02.861Z,101167.47
2022-08-03T21:08:05.853Z,101166.88
2022-08-03T21:10:30.922Z,101164.81
2022-08-03T21:13:01.803Z,101145.19
2022-08-03T21:13:09.879Z,101156.34
2022-08-03T21:13:23.383Z,101157.75
2022-08-03T21:16:02.514Z,101157.44
2022-08-03T21:18:51.417Z,101157.09
2022-08-03T21:21:22.763Z,101153.09
2022-08-03T21:23:53.426Z,101150.97
2022-08-03T21:26:24.671Z,101160.06
2022-08-03T21:28:55.277Z,101151.56
2022-08-03T21:31:26.550Z,101151.25
2022-08-03T21:34:05.374Z,101147.47
2022-08-03T21:36:36.272Z,101141.16
2022-08-03T21:39:10.434Z,101146.13
2022-08-03T21:41:40.229Z,101135.09
2022-08-03T21:44:09.737Z,101137.38
2022-08-03T21:46:42.270Z,101141.31
2022-08-03T21:50:05.454Z,101139.06
2022-08-03T21:52:05.226Z,101132.53
2022-08-03T21:54:37.177Z,101132.94
2022-08-03T21:57:12.954Z,101131.13
2022-08-03T21:59:47.776Z,101130.41
2022-08-03T22:02:24.294Z,101130.84
2022-08-03T22:04:56.443Z,101133.47
2022-08-03T22:07:27.975Z,101136.97
2022-08-03T22:09:58.572Z,101133.91
2022-08-03T22:12:29.335Z,101132.72
2022-08-03T22:15:02.127Z,101134.00
2022-08-03T22:17:53.876Z,101130.94
2022-08-03T22:20:22.007Z,101126.81
2022-08-03T22:22:56.597Z,101128.97
2022-08-03T22:25:29.172Z,101125.34
2022-08-03T22:28:05.665Z,101124.97
2022-08-03T22:30:34.600Z,101119.81
2022-08-03T22:33:05.391Z,101121.47
2022-08-03T22:35:47.199Z,101120.31
2022-08-03T22:38:18.084Z,101119.97
2022-08-03T22:40:49.780Z,101120.31
2022-08-03T22:43:23.223Z,101115.63
2022-08-03T22:46:09.220Z,101117.50
2022-08-03T22:48:41.338Z,101115.97
2022-08-03T22:51:10.457Z,101119.69
2022-08-03T22:53:39.892Z,101110.88
2022-08-03T22:56:08.756Z,101114.16
2022-08-03T22:58:37.267Z,101114.34
2022-08-03T23:01:11.461Z,101105.47
2022-08-03T23:04:00.383Z,101104.41
2022-08-03T23:06:37.719Z,101097.34
2022-08-03T23:09:11.847Z,101100.63
2022-08-03T23:11:45.437Z,101107.19
2022-08-03T23:14:18.318Z,101111.41
2022-08-03T23:16:47.818Z,101101.91
2022-08-03T23:19:25.631Z,101108.66
2022-08-03T23:22:02.673Z,101102.31
2022-08-03T23:24:36.185Z,101108.38
2022-08-03T23:27:06.751Z,101104.28
2022-08-03T23:29:39.579Z,101101.22
2022-08-03T23:32:10.394Z,101097.56
2022-08-03T23:34:58.583Z,101098.16
2022-08-03T23:37:28.771Z,101100.41
2022-08-03T23:39:57.298Z,101098.09
2022-08-03T23:42:26.256Z,101098.09
2022-08-03T23:44:59.289Z,101098.44
2022-08-03T23:47:46.934Z,101093.22
2022-08-03T23:50:17.232Z,101101.50
2022-08-03T23:53:09.717Z,101087.03
2022-08-03T23:56:00.960Z,101091.81
2022-08-03T23:58:32.387Z,101089.41
